sensor_id;sensor_type;location;lat;lon;timestamp;pressure;altitude;pressure_sealevel;temperature;humidity
31717;BME280;18301;51.076;17.046;2023-04-01T00:04:19;98346.44;;;10.43;87.64
31717;BME280;18301;51.076;17.046;2023-04-01T00:09:22;98346.78;;;10.48;87.86
31717;BME280;18301;51.076;17.046;2023-04-01T00:14:23;98340.69;;;10.38;88.34
31717;BME280;18301;51.076;17.046;2023-04-01T00:19:25;98339.91;;;10.19;88.88
31717;BME280;18301;51.076;17.046;2023-04-01T00:24:26;98337.88;;;10.13;88.93
31717;BME280;18301;51.076;17.046;2023-04-01T00:29:28;98338.19;;;10.18;88.54
31717;BME280;18301;51.076;17.046;2023-04-01T00:34:31;98336.53;;;10.17;88.41
31717;BME280;18301;51.076;17.046;2023-04-01T00:39:34;98336.72;;;10.24;88.23
31717;BME280;18301;51.076;17.046;2023-04-01T00:44:37;98332.25;;;10.32;88.02
31717;BME280;18301;51.076;17.046;2023-04-01T00:49:44;98330.06;;;10.36;87.60
31717;BME280;18301;51.076;17.046;2023-04-01T00:54:48;98333.44;;;10.38;87.21
31717;BME280;18301;51.076;17.046;2023-04-01T00:59:54;98333.63;;;10.45;87.27
31717;BME280;18301;51.076;17.046;2023-04-01T01:04:56;98332.34;;;10.57;87.06
31717;BME280;18301;51.076;17.046;2023-04-01T01:10:15;98340.75;;;10.62;86.92
31717;BME280;18301;51.076;17.046;2023-04-01T01:15:24;98335.72;;;10.67;86.94
31717;BME280;18301;51.076;17.046;2023-04-01T01:25:57;98332.19;;;10.67;86.53
31717;BME280;18301;51.076;17.046;2023-04-01T01:36:19;98331.03;;;10.69;86.23
31717;BME280;18301;51.076;17.046;2023-04-01T01:41:23;98333.38;;;10.72;86.47
31717;BME280;18301;51.076;17.046;2023-04-01T01:46:28;98336.25;;;10.79;86.30
31717;BME280;18301;51.076;17.046;2023-04-01T01:51:32;98324.66;;;10.95;86.14
31717;BME280;18301;51.076;17.046;2023-04-01T01:56:34;98332.38;;;10.90;86.15
31717;BME280;18301;51.076;17.046;2023-04-01T02:01:39;98325.66;;;10.86;86.40
31717;BME280;18301;51.076;17.046;2023-04-01T02:06:50;98327.88;;;10.90;86.52
31717;BME280;18301;51.076;17.046;2023-04-01T02:12:02;98332.06;;;10.85;86.51
31717;BME280;18301;51.076;17.046;2023-04-01T02:17:07;98326.00;;;10.91;86.51
31717;BME280;18301;51.076;17.046;2023-04-01T02:22:14;98323.13;;;10.84;86.52
31717;BME280;18301;51.076;17.046;2023-04-01T02:27:17;98316.22;;;10.81;86.75
31717;BME280;18301;51.076;17.046;2023-04-01T02:32:20;98309.44;;;10.77;86.58
31717;BME280;18301;51.076;17.046;2023-04-01T02:37:22;98310.78;;;10.73;86.94
31717;BME280;18301;51.076;17.046;2023-04-01T02:42:24;98311.94;;;10.71;86.97
31717;BME280;18301;51.076;17.046;2023-04-01T02:47:26;98316.88;;;10.83;86.69
31717;BME280;18301;51.076;17.046;2023-04-01T02:52:28;98321.94;;;10.78;86.76
31717;BME280;18301;51.076;17.046;2023-04-01T02:57:30;98318.22;;;10.79;86.81
31717;BME280;18301;51.076;17.046;2023-04-01T03:02:32;98325.28;;;10.72;86.88
31717;BME280;18301;51.076;17.046;2023-04-01T03:07:33;98328.16;;;10.79;86.70
31717;BME280;18301;51.076;17.046;2023-04-01T03:12:35;98330.34;;;10.83;86.54
31717;BME280;18301;51.076;17.046;2023-04-01T03:17:38;98334.41;;;10.79;86.37
31717;BME280;18301;51.076;17.046;2023-04-01T03:22:39;98326.97;;;10.73;86.62
31717;BME280;18301;51.076;17.046;2023-04-01T03:27:43;98338.44;;;10.83;86.14
31717;BME280;18301;51.076;17.046;2023-04-01T03:32:44;98338.78;;;10.80;86.01
31717;BME280;18301;51.076;17.046;2023-04-01T03:37:46;98344.56;;;10.94;86.12
31717;BME280;18301;51.076;17.046;2023-04-01T03:42:48;98343.84;;;10.75;86.49
31717;BME280;18301;51.076;17.046;2023-04-01T03:47:50;98347.22;;;10.86;86.72
31717;BME280;18301;51.076;17.046;2023-04-01T03:52:51;98348.91;;;10.87;86.53
31717;BME280;18301;51.076;17.046;2023-04-01T03:57:53;98352.09;;;10.66;87.90
31717;BME280;18301;51.076;17.046;2023-04-01T04:02:54;98358.25;;;10.50;88.63
31717;BME280;18301;51.076;17.046;2023-04-01T04:07:57;98367.00;;;10.44;90.73
31717;BME280;18301;51.076;17.046;2023-04-01T04:12:59;98359.63;;;10.54;89.97
31717;BME280;18301;51.076;17.046;2023-04-01T04:18:00;98358.75;;;10.45;89.81
31717;BME280;18301;51.076;17.046;2023-04-01T04:23:02;98372.41;;;10.52;90.31
31717;BME280;18301;51.076;17.046;2023-04-01T04:28:04;98374.78;;;10.47;90.57
31717;BME280;18301;51.076;17.046;2023-04-01T04:33:05;98374.56;;;10.40;91.29
31717;BME280;18301;51.076;17.046;2023-04-01T04:38:06;98364.28;;;10.35;92.46
31717;BME280;18301;51.076;17.046;2023-04-01T04:43:13;98371.97;;;10.30;92.13
31717;BME280;18301;51.076;17.046;2023-04-01T04:48:15;98367.47;;;10.39;92.29
31717;BME280;18301;51.076;17.046;2023-04-01T04:53:19;98367.59;;;10.29;92.76
31717;BME280;18301;51.076;17.046;2023-04-01T04:58:21;98362.59;;;10.43;92.88
31717;BME280;18301;51.076;17.046;2023-04-01T05:03:23;98381.09;;;10.29;92.99
31717;BME280;18301;51.076;17.046;2023-04-01T05:08:24;98380.06;;;10.30;93.23
31717;BME280;18301;51.076;17.046;2023-04-01T05:13:26;98379.00;;;10.23;94.20
31717;BME280;18301;51.076;17.046;2023-04-01T05:18:28;98389.16;;;10.03;96.31
31717;BME280;18301;51.076;17.046;2023-04-01T05:23:31;98379.31;;;10.20;94.56
31717;BME280;18301;51.076;17.046;2023-04-01T05:28:33;98384.16;;;10.34;94.40
31717;BME280;18301;51.076;17.046;2023-04-01T05:33:35;98388.84;;;10.32;94.79
31717;BME280;18301;51.076;17.046;2023-04-01T05:38:36;98383.78;;;10.29;94.82
31717;BME280;18301;51.076;17.046;2023-04-01T05:43:39;98385.34;;;10.40;95.30
31717;BME280;18301;51.076;17.046;2023-04-01T05:48:40;98385.94;;;10.26;96.56
31717;BME280;18301;51.076;17.046;2023-04-01T05:53:42;98390.59;;;10.42;95.83
31717;BME280;18301;51.076;17.046;2023-04-01T05:58:47;98374.09;;;10.45;95.34
31717;BME280;18301;51.076;17.046;2023-04-01T06:03:51;98384.69;;;10.46;95.61
31717;BME280;18301;51.076;17.046;2023-04-01T06:08:56;98381.47;;;10.43;96.15
31717;BME280;18301;51.076;17.046;2023-04-01T06:14:37;98395.66;;;10.53;95.09
31717;BME280;18301;51.076;17.046;2023-04-01T06:46:07;98411.56;;;10.64;96.20
31717;BME280;18301;51.076;17.046;2023-04-01T06:56:20;98421.75;;;10.78;96.70
31717;BME280;18301;51.076;17.046;2023-04-01T07:01:29;98427.78;;;10.72;96.52
31717;BME280;18301;51.076;17.046;2023-04-01T07:06:45;98422.41;;;10.72;97.59
31717;BME280;18301;51.076;17.046;2023-04-01T07:11:48;98423.38;;;10.63;99.93
31717;BME280;18301;51.076;17.046;2023-04-01T07:16:58;98422.59;;;10.79;97.90
31717;BME280;18301;51.076;17.046;2023-04-01T07:22:34;98419.75;;;10.89;98.67
31717;BME280;18301;51.076;17.046;2023-04-01T07:27:37;98425.75;;;10.74;99.37
31717;BME280;18301;51.076;17.046;2023-04-01T07:32:49;98425.84;;;10.91;98.40
31717;BME280;18301;51.076;17.046;2023-04-01T07:38:34;98431.28;;;11.07;96.30
31717;BME280;18301;51.076;17.046;2023-04-01T07:44:05;98443.75;;;11.08;96.38
31717;BME280;18301;51.076;17.046;2023-04-01T07:49:17;98447.91;;;11.37;95.11
31717;BME280;18301;51.076;17.046;2023-04-01T07:59:30;98452.91;;;11.23;95.73
31717;BME280;18301;51.076;17.046;2023-04-01T08:04:46;98455.19;;;11.02;96.99
31717;BME280;18301;51.076;17.046;2023-04-01T08:15:26;98454.91;;;11.13;99.08
31717;BME280;18301;51.076;17.046;2023-04-01T08:25:53;98462.81;;;11.06;99.46
31717;BME280;18301;51.076;17.046;2023-04-01T08:31:09;98463.78;;;11.56;96.26
31717;BME280;18301;51.076;17.046;2023-04-01T08:36:17;98477.13;;;11.66;95.87
31717;BME280;18301;51.076;17.046;2023-04-01T08:41:37;98465.47;;;11.57;95.54
31717;BME280;18301;51.076;17.046;2023-04-01T08:46:56;98472.75;;;11.81;95.88
31717;BME280;18301;51.076;17.046;2023-04-01T08:52:15;98476.63;;;11.70;96.17
31717;BME280;18301;51.076;17.046;2023-04-01T09:03:14;98464.47;;;12.32;93.36
31717;BME280;18301;51.076;17.046;2023-04-01T09:19:24;98496.56;;;12.51;89.30
31717;BME280;18301;51.076;17.046;2023-04-01T09:24:41;98497.94;;;12.47;90.59
31717;BME280;18301;51.076;17.046;2023-04-01T10:02:02;98502.81;;;13.07;84.64
31717;BME280;18301;51.076;17.046;2023-04-01T10:34:42;98498.13;;;14.10;77.68
31717;BME280;18301;51.076;17.046;2023-04-01T10:40:19;98505.50;;;13.78;77.95
31717;BME280;18301;51.076;17.046;2023-04-01T10:51:04;98517.78;;;13.34;80.01
31717;BME280;18301;51.076;17.046;2023-04-01T10:56:32;98532.03;;;12.64;80.86
31717;BME280;18301;51.076;17.046;2023-04-01T11:07:22;98552.34;;;11.87;85.79
31717;BME280;18301;51.076;17.046;2023-04-01T11:23:15;98540.06;;;12.97;87.10
31717;BME280;18301;51.076;17.046;2023-04-01T11:28:35;98539.66;;;13.25;85.69
31717;BME280;18301;51.076;17.046;2023-04-01T11:33:57;98544.13;;;13.01;86.95
31717;BME280;18301;51.076;17.046;2023-04-01T11:44:25;98567.84;;;12.83;86.17
31717;BME280;18301;51.076;17.046;2023-04-01T11:49:52;98557.97;;;13.06;86.16
31717;BME280;18301;51.076;17.046;2023-04-01T12:05:43;98560.34;;;13.09;84.91
31717;BME280;18301;51.076;17.046;2023-04-01T12:10:57;98574.28;;;12.82;84.46
31717;BME280;18301;51.076;17.046;2023-04-01T12:21:27;98573.81;;;12.62;85.16
31717;BME280;18301;51.076;17.046;2023-04-01T12:37:57;98580.19;;;13.49;84.85
31717;BME280;18301;51.076;17.046;2023-04-01T13:05:19;98588.97;;;13.04;83.96
31717;BME280;18301;51.076;17.046;2023-04-01T13:16:19;98611.75;;;13.18;84.78
31717;BME280;18301;51.076;17.046;2023-04-01T13:21:50;98609.75;;;13.11;85.55
31717;BME280;18301;51.076;17.046;2023-04-01T13:27:09;98622.47;;;12.95;86.24
31717;BME280;18301;51.076;17.046;2023-04-01T13:32:53;98634.38;;;12.69;87.79
31717;BME280;18301;51.076;17.046;2023-04-01T13:38:12;98632.84;;;12.75;88.94
31717;BME280;18301;51.076;17.046;2023-04-01T13:43:24;98641.63;;;12.93;88.71
31717;BME280;18301;51.076;17.046;2023-04-01T13:48:32;98649.06;;;12.91;89.44
31717;BME280;18301;51.076;17.046;2023-04-01T13:59:07;98646.69;;;12.63;88.03
31717;BME280;18301;51.076;17.046;2023-04-01T14:04:39;98650.91;;;12.33;88.67
31717;BME280;18301;51.076;17.046;2023-04-01T14:20:22;98651.19;;;12.06;87.42
31717;BME280;18301;51.076;17.046;2023-04-01T14:31:15;98653.09;;;12.21;85.54
31717;BME280;18301;51.076;17.046;2023-04-01T14:41:51;98663.75;;;12.31;85.38
31717;BME280;18301;51.076;17.046;2023-04-01T14:52:35;98662.66;;;12.00;87.02
31717;BME280;18301;51.076;17.046;2023-04-01T14:57:37;98670.59;;;11.93;87.41
31717;BME280;18301;51.076;17.046;2023-04-01T15:02:54;98661.50;;;12.02;88.18
31717;BME280;18301;51.076;17.046;2023-04-01T15:08:07;98667.63;;;12.20;88.66
31717;BME280;18301;51.076;17.046;2023-04-01T15:19:05;98667.81;;;12.27;90.14
31717;BME280;18301;51.076;17.046;2023-04-01T15:29:39;98688.13;;;12.48;89.77
31717;BME280;18301;51.076;17.046;2023-04-01T15:34:54;98692.84;;;12.29;89.06
31717;BME280;18301;51.076;17.046;2023-04-01T15:40:20;98695.88;;;12.26;89.96
31717;BME280;18301;51.076;17.046;2023-04-01T15:55:50;98706.56;;;12.44;91.43
31717;BME280;18301;51.076;17.046;2023-04-01T16:11:43;98725.78;;;12.33;90.17
31717;BME280;18301;51.076;17.046;2023-04-01T16:22:40;98747.66;;;12.48;90.66
31717;BME280;18301;51.076;17.046;2023-04-01T16:27:54;98749.50;;;12.47;90.45
31717;BME280;18301;51.076;17.046;2023-04-01T16:38:25;98755.59;;;12.41;89.56
31717;BME280;18301;51.076;17.046;2023-04-01T16:43:35;98766.00;;;12.28;89.56
31717;BME280;18301;51.076;17.046;2023-04-01T16:49:15;98770.38;;;12.20;89.90
31717;BME280;18301;51.076;17.046;2023-04-01T16:59:27;98785.56;;;12.13;90.58
31717;BME280;18301;51.076;17.046;2023-04-01T17:04:36;98797.03;;;12.07;90.51
31717;BME280;18301;51.076;17.046;2023-04-01T17:15:18;98824.34;;;11.96;91.04
31717;BME280;18301;51.076;17.046;2023-04-01T17:20:32;98834.97;;;11.97;91.44
31717;BME280;18301;51.076;17.046;2023-04-01T17:41:31;98862.53;;;11.75;92.51
31717;BME280;18301;51.076;17.046;2023-04-01T17:52:38;98881.41;;;11.67;93.17
31717;BME280;18301;51.076;17.046;2023-04-01T17:57:50;98886.50;;;11.70;93.10
31717;BME280;18301;51.076;17.046;2023-04-01T18:08:26;98902.00;;;11.68;93.72
31717;BME280;18301;51.076;17.046;2023-04-01T18:29:55;98923.16;;;11.01;92.56
31717;BME280;18301;51.076;17.046;2023-04-01T18:40:32;98943.28;;;11.06;92.11
31717;BME280;18301;51.076;17.046;2023-04-01T18:45:37;98954.22;;;10.77;93.24
31717;BME280;18301;51.076;17.046;2023-04-01T18:50:54;98950.25;;;10.81;93.06
31717;BME280;18301;51.076;17.046;2023-04-01T18:56:03;98964.22;;;10.67;94.88
31717;BME280;18301;51.076;17.046;2023-04-01T19:01:28;98972.44;;;10.75;93.88
31717;BME280;18301;51.076;17.046;2023-04-01T19:11:50;98981.44;;;10.66;93.29
31717;BME280;18301;51.076;17.046;2023-04-01T19:17:23;98994.66;;;10.59;93.40
31717;BME280;18301;51.076;17.046;2023-04-01T19:22:32;98993.66;;;10.60;92.37
31717;BME280;18301;51.076;17.046;2023-04-01T19:27:42;99004.88;;;10.56;92.50
31717;BME280;18301;51.076;17.046;2023-04-01T19:33:17;98999.78;;;10.53;92.59
31717;BME280;18301;51.076;17.046;2023-04-01T19:38:31;99002.06;;;10.48;92.01
31717;BME280;18301;51.076;17.046;2023-04-01T19:59:34;99020.00;;;10.20;93.98
31717;BME280;18301;51.076;17.046;2023-04-01T20:04:40;99038.41;;;10.24;94.60
31717;BME280;18301;51.076;17.046;2023-04-01T20:20:31;99052.06;;;10.23;94.83
31717;BME280;18301;51.076;17.046;2023-04-01T20:25:51;99056.75;;;10.11;96.29
31717;BME280;18301;51.076;17.046;2023-04-01T20:31:32;99065.66;;;10.21;95.40
31717;BME280;18301;51.076;17.046;2023-04-01T20:42:10;99077.59;;;10.09;96.59
31717;BME280;18301;51.076;17.046;2023-04-01T20:58:13;99081.59;;;10.05;95.98
31717;BME280;18301;51.076;17.046;2023-04-01T21:08:53;99092.19;;;9.97;95.46
31717;BME280;18301;51.076;17.046;2023-04-01T21:46:36;99139.66;;;9.59;95.80
31717;BME280;18301;51.076;17.046;2023-04-01T22:07:25;99156.03;;;9.36;96.18
31717;BME280;18301;51.076;17.046;2023-04-01T22:12:44;99152.84;;;9.21;96.22
31717;BME280;18301;51.076;17.046;2023-04-01T22:23:29;99144.28;;;9.07;96.25
31717;BME280;18301;51.076;17.046;2023-04-01T22:28:51;99173.09;;;9.16;95.78
31717;BME280;18301;51.076;17.046;2023-04-01T22:34:14;99178.47;;;9.16;95.95
31717;BME280;18301;51.076;17.046;2023-04-01T22:39:40;99181.47;;;9.22;95.38
31717;BME280;18301;51.076;17.046;2023-04-01T22:50:10;99197.25;;;9.06;95.14
31717;BME280;18301;51.076;17.046;2023-04-01T22:55:21;99198.53;;;9.02;95.23
31717;BME280;18301;51.076;17.046;2023-04-01T23:00:42;99195.22;;;8.98;95.03
31717;BME280;18301;51.076;17.046;2023-04-01T23:06:03;99200.59;;;8.98;95.23
31717;BME280;18301;51.076;17.046;2023-04-01T23:11:08;99213.88;;;8.90;94.43
31717;BME280;18301;51.076;17.046;2023-04-01T23:16:12;99215.38;;;8.83;94.19
31717;BME280;18301;51.076;17.046;2023-04-01T23:21:20;99218.78;;;8.85;93.87
31717;BME280;18301;51.076;17.046;2023-04-01T23:26:38;99213.19;;;8.77;92.60
31717;BME280;18301;51.076;17.046;2023-04-01T23:31:43;99226.47;;;8.69;93.71
31717;BME280;18301;51.076;17.046;2023-04-01T23:36:48;99238.50;;;8.53;93.42
31717;BME280;18301;51.076;17.046;2023-04-01T23:41:53;99245.38;;;8.46;92.25
31717;BME280;18301;51.076;17.046;2023-04-01T23:46:57;99260.28;;;8.50;90.92
31717;BME280;18301;51.076;17.046;2023-04-01T23:52:29;99256.56;;;8.19;91.72
31717;BME280;18301;51.076;17.046;2023-04-01T23:57:34;99263.38;;;8.23;91.53
